createdAt,value
2023-03-14T00:02:39.459Z,11.9
2023-03-14T00:04:39.041Z,11.9
2023-03-14T00:06:38.706Z,12
2023-03-14T00:20:39.567Z,11.8
2023-03-14T00:22:39.208Z,11.9
2023-03-14T00:24:38.829Z,11.7
2023-03-14T00:26:38.482Z,11.7
2023-03-14T00:28:38.111Z,11.8
2023-03-14T00:30:41.142Z,12
2023-03-14T00:32:40.888Z,11.9
2023-03-14T00:34:40.403Z,11.9
2023-03-14T00:37:41.577Z,11.9
2023-03-14T00:39:41.228Z,11.9
2023-03-14T00:41:40.826Z,11.8
2023-03-14T00:43:43.943Z,11.8
2023-03-14T00:45:43.553Z,11.8
2023-03-14T00:47:44.724Z,11.7
2023-03-14T00:49:45.869Z,11.7
2023-03-14T00:51:43.989Z,11.6
2023-03-14T00:53:43.602Z,11.6
2023-03-14T00:55:43.269Z,11.6
2023-03-14T00:57:46.306Z,11.5
2023-03-14T00:59:45.959Z,11.5
2023-03-14T01:01:45.632Z,11.5
2023-03-14T01:03:45.195Z,11.5
2023-03-14T01:05:44.848Z,11.6
2023-03-14T01:07:56.903Z,11.6
2023-03-14T01:09:44.130Z,11.6
2023-03-14T01:11:47.177Z,11.6
2023-03-14T01:13:46.836Z,11.6
2023-03-14T01:23:45.047Z,11.5
2023-03-14T01:25:48.062Z,11.5
2023-03-14T01:27:47.736Z,11.5
2023-03-14T01:30:48.911Z,11.4
2023-03-14T01:32:49.724Z,11.4
2023-03-14T01:34:48.208Z,11.3
2023-03-14T01:36:47.823Z,11.3
2023-03-14T01:38:50.909Z,10.5
2023-03-14T01:40:50.534Z,10.4
2023-03-14T01:42:50.152Z,10.1
2023-03-14T01:44:49.822Z,9.9
2023-03-14T01:46:49.460Z,9.9
2023-03-14T01:48:49.097Z,10.2
2023-03-14T01:50:48.766Z,10.4
2023-03-14T01:52:51.801Z,10.4
2023-03-14T01:54:51.573Z,10.4
2023-03-14T01:58:50.803Z,9.7
2023-03-14T02:00:50.534Z,9.3
2023-03-14T02:02:50.142Z,9.1
2023-03-14T02:04:49.797Z,9
2023-03-14T02:06:52.911Z,8.9
2023-03-14T02:08:52.559Z,8.9
2023-03-14T02:10:52.230Z,8.9
2023-03-14T02:12:51.940Z,8.8
2023-03-14T02:14:51.627Z,8.7
2023-03-14T02:16:51.294Z,8.7
2023-03-14T02:18:50.986Z,8.7
2023-03-14T02:22:53.781Z,8.7
2023-03-14T02:24:53.471Z,8.7
2023-03-14T02:33:19.931Z,8.7
2023-03-14T02:47:19.091Z,8.8
2023-03-14T02:49:18.822Z,8.8
2023-03-14T02:51:18.502Z,8.8
2023-03-14T02:53:18.213Z,8.8
2023-03-14T02:55:17.876Z,8.8
2023-03-14T02:57:17.585Z,8.9
2023-03-14T02:59:17.317Z,8.8
2023-03-14T03:01:20.634Z,8.8
2023-03-14T03:03:20.207Z,8.8
2023-03-14T03:05:19.790Z,8.8
2023-03-14T03:07:19.493Z,8.8
2023-03-14T03:09:19.224Z,8.8
2023-03-14T03:11:18.915Z,8.8
2023-03-14T03:13:18.640Z,8.9
2023-03-14T03:15:21.736Z,9
2023-03-14T03:17:21.438Z,9
2023-03-14T03:19:21.136Z,9
2023-03-14T03:20:23.088Z,9
2023-03-14T03:22:22.365Z,9.1
2023-03-14T03:24:22.089Z,9.1
2023-03-14T03:26:21.772Z,9.1
2023-03-14T03:28:24.868Z,9.1
2023-03-14T03:30:24.585Z,9.1
2023-03-14T03:32:24.317Z,9.1
2023-03-14T03:36:23.702Z,9.1
2023-03-14T03:38:23.382Z,9.1
2023-03-14T03:40:23.080Z,9
2023-03-14T03:42:26.146Z,8.9
2023-03-14T03:44:25.871Z,8.9
2023-03-14T03:46:25.642Z,9
2023-03-14T03:48:25.287Z,9
2023-03-14T03:54:24.371Z,8.9
2023-03-14T03:58:27.172Z,8.9
2023-03-14T04:00:26.876Z,9
2023-03-14T04:08:25.658Z,8.9
2023-03-14T04:15:29.731Z,9
2023-03-14T04:17:29.432Z,9
2023-03-14T04:19:29.132Z,9
2023-03-14T04:21:28.844Z,9
2023-03-14T04:23:31.939Z,9
2023-03-14T04:25:31.694Z,9
2023-03-14T04:27:31.312Z,9
2023-03-14T04:29:31.017Z,9
2023-03-14T04:31:30.743Z,9.1
2023-03-14T04:33:30.406Z,9.1
2023-03-14T04:35:30.115Z,9.1
2023-03-14T04:37:33.171Z,9
2023-03-14T04:39:32.894Z,9.1
2023-03-14T04:41:32.569Z,9.1
2023-03-14T04:43:32.273Z,9.1
2023-03-14T04:45:32.007Z,9.1
2023-03-14T04:47:31.684Z,9.2
2023-03-14T04:49:31.363Z,9.2
2023-03-14T04:51:34.483Z,9.3
2023-03-14T04:53:34.183Z,9.3
2023-03-14T04:55:33.868Z,9.3
2023-03-14T04:57:33.582Z,9.3
2023-03-14T04:59:33.242Z,9.4
2023-03-14T05:01:33.010Z,9.3
2023-03-14T05:03:32.687Z,9.3
2023-03-14T05:05:35.790Z,9.3
2023-03-14T05:07:35.448Z,9.4
2023-03-14T05:09:35.147Z,9.3
2023-03-14T05:14:36.042Z,9.3
2023-03-14T05:18:38.863Z,9.3
2023-03-14T05:20:38.526Z,9.3
2023-03-14T05:22:38.257Z,9.4
2023-03-14T05:26:37.634Z,9.4
2023-03-14T05:28:37.330Z,9.4
2023-03-14T05:30:37.036Z,9.4
2023-03-14T05:38:39.212Z,9.4
2023-03-14T05:40:38.922Z,9.5
2023-03-14T05:44:38.299Z,9.5
2023-03-14T05:48:41.064Z,9.2
2023-03-14T05:50:40.740Z,9.2
2023-03-14T05:52:40.462Z,9.1
2023-03-14T05:56:39.851Z,9
2023-03-14T05:58:39.551Z,9
2023-03-14T06:00:42.620Z,9
2023-03-14T06:07:03.324Z,8.8
2023-03-14T06:13:05.836Z,8.7
2023-03-14T06:15:05.509Z,8.7
2023-03-14T06:17:05.206Z,8.7
2023-03-14T06:21:04.661Z,8.7
2023-03-14T06:23:04.841Z,8.7
2023-03-14T06:25:04.549Z,8.7
2023-03-14T06:27:07.638Z,8.7
2023-03-14T06:29:07.931Z,8.7
2023-03-14T06:31:07.646Z,8.7
2023-03-14T06:33:09.090Z,8.7
2023-03-14T06:35:08.601Z,8.7
2023-03-14T06:37:08.285Z,8.8
2023-03-14T06:39:08.001Z,8.7
2023-03-14T06:41:11.146Z,8.7
2023-03-14T06:43:10.812Z,8.8
2023-03-14T06:51:09.728Z,8.9
2023-03-14T06:55:12.534Z,9
2023-03-14T06:57:12.315Z,9
2023-03-14T07:00:13.489Z,9
2023-03-14T07:02:13.224Z,8.9
2023-03-14T07:04:12.990Z,8.9
2023-03-14T07:06:12.604Z,8.9
2023-03-14T07:08:15.731Z,8.9
2023-03-14T07:10:15.432Z,8.9
2023-03-14T07:12:15.131Z,8.9
2023-03-14T07:14:14.840Z,8.8
2023-03-14T07:16:14.790Z,8.8
2023-03-14T07:18:14.295Z,8.9
2023-03-14T07:20:13.978Z,8.9
2023-03-14T07:22:17.114Z,7.8
2023-03-14T07:26:16.523Z,7.5
2023-03-14T07:28:16.277Z,7.4
2023-03-14T07:30:16.012Z,7.3
2023-03-14T07:34:15.391Z,7.3
2023-03-14T07:44:17.442Z,7.2
2023-03-14T07:46:17.176Z,7.3
2023-03-14T07:48:16.914Z,7.2
2023-03-14T07:50:20.013Z,7.2
2023-03-14T07:52:19.721Z,7.2
2023-03-14T07:54:20.909Z,7.2
2023-03-14T07:57:20.764Z,6.9
2023-03-14T08:01:20.209Z,6.7
2023-03-14T08:03:23.358Z,6.7
2023-03-14T08:05:23.105Z,6.7
2023-03-14T08:09:22.628Z,6.6
2023-03-14T08:11:22.265Z,6.6
2023-03-14T08:13:22.005Z,6.6
2023-03-14T08:15:21.744Z,6.6
2023-03-14T08:17:26.330Z,6.7
2023-03-14T08:19:24.724Z,6.7
2023-03-14T08:21:24.560Z,6.7
2023-03-14T08:23:24.288Z,6.5
2023-03-14T08:25:24.083Z,6.4
2023-03-14T08:27:23.761Z,6.3
2023-03-14T08:29:23.503Z,6.2
2023-03-14T08:31:26.913Z,5.7
2023-03-14T08:33:26.402Z,5.6
2023-03-14T08:35:26.184Z,5.7
2023-03-14T08:37:27.153Z,5.5
2023-03-14T08:39:25.911Z,5.6
2023-03-14T08:41:25.960Z,5.6
2023-03-14T08:43:25.562Z,5.4
2023-03-14T08:47:28.585Z,5.4
2023-03-14T08:49:28.484Z,5.4
2023-03-14T08:50:30.087Z,5.5
2023-03-14T08:52:29.912Z,5.4
2023-03-14T08:54:29.620Z,5.4
2023-03-14T08:58:32.681Z,5.6
2023-03-14T09:00:33.662Z,5.7
2023-03-14T09:02:32.317Z,5.7
2023-03-14T09:12:34.724Z,5.8
2023-03-14T09:14:34.492Z,5.8
2023-03-14T09:16:34.291Z,5.9
2023-03-14T09:18:34.127Z,5.8
2023-03-14T09:20:33.960Z,6
2023-03-14T09:22:33.807Z,6
2023-03-14T09:24:33.626Z,6.2
2023-03-14T09:30:36.412Z,6.4
2023-03-14T09:32:36.352Z,6.4
2023-03-14T09:36:35.925Z,6.6
2023-03-14T09:47:00.017Z,6.4
2023-03-14T09:48:59.666Z,6.3
2023-03-14T09:50:59.445Z,6.6
2023-03-14T09:57:02.150Z,6.6
2023-03-14T09:59:01.857Z,6.6
2023-03-14T10:03:01.316Z,6.3
2023-03-14T10:05:06.653Z,6.3
2023-03-14T10:07:04.983Z,6.3
2023-03-14T10:09:04.148Z,6.4
2023-03-14T10:11:03.940Z,6.5
2023-03-14T10:13:03.758Z,6.6
2023-03-14T10:15:03.530Z,6.7
2023-03-14T10:17:03.240Z,6.8
2023-03-14T10:19:02.960Z,7
2023-03-14T10:21:06.231Z,7.2
2023-03-14T10:23:05.800Z,7.1
2023-03-14T10:25:05.552Z,7.4
2023-03-14T10:27:05.265Z,7.6
2023-03-14T10:31:04.929Z,6.8
2023-03-14T10:33:04.577Z,6.1
2023-03-14T10:35:07.755Z,5
2023-03-14T10:39:07.208Z,5.1
2023-03-14T10:42:08.606Z,5.6
2023-03-14T10:44:08.473Z,5.9
2023-03-14T10:46:08.315Z,6.1
2023-03-14T10:48:11.412Z,6.5
2023-03-14T10:50:11.281Z,6.6
2023-03-14T10:52:10.896Z,6.8
2023-03-14T10:54:10.645Z,7
2023-03-14T10:56:10.542Z,7.3
2023-03-14T10:58:10.121Z,7.5
2023-03-14T11:00:09.956Z,8
2023-03-14T11:02:13.951Z,8.4
2023-03-14T11:04:12.942Z,8.8
2023-03-14T11:06:12.641Z,8.5
2023-03-14T11:14:11.576Z,7.4
2023-03-14T11:16:14.797Z,7.4
2023-03-14T11:18:14.442Z,7.3
2023-03-14T11:20:14.212Z,7.1
2023-03-14T11:24:13.665Z,7
2023-03-14T11:26:13.370Z,7.3
2023-03-14T11:28:13.120Z,7.3
2023-03-14T11:35:17.237Z,8.8
2023-03-14T11:37:16.961Z,8.8
2023-03-14T11:39:16.705Z,9.4
2023-03-14T11:41:16.400Z,9.6
2023-03-14T11:45:19.993Z,10.1
2023-03-14T11:47:18.904Z,11
2023-03-14T11:49:18.620Z,11.1
2023-03-14T11:51:18.274Z,10.2
2023-03-14T11:59:20.332Z,9
2023-03-14T12:01:19.998Z,9.4
2023-03-14T12:03:19.652Z,9.8
2023-03-14T12:09:18.634Z,10.3
2023-03-14T12:11:21.700Z,10
2023-03-14T12:13:21.307Z,10.1
2023-03-14T12:15:20.908Z,10.3
2023-03-14T12:19:21.716Z,10.6
2023-03-14T12:21:21.308Z,10.4
2023-03-14T12:23:21.058Z,10.6
2023-03-14T12:25:24.017Z,10.6
2023-03-14T12:29:23.150Z,10.5
2023-03-14T12:30:24.651Z,10.2
2023-03-14T12:32:24.388Z,10.6
2023-03-14T12:34:23.866Z,11.6
2023-03-14T12:36:23.483Z,10.8
2023-03-14T12:38:26.462Z,11.6
2023-03-14T12:40:26.047Z,11.3
2023-03-14T12:42:32.476Z,10.2
2023-03-14T12:48:24.416Z,9.9
2023-03-14T12:50:23.993Z,11.1
2023-03-14T12:52:27.421Z,11.2
2023-03-14T12:54:26.610Z,11
2023-03-14T12:56:26.227Z,10.7
2023-03-14T13:00:25.362Z,10.8
2023-03-14T13:02:24.964Z,10.6
2023-03-14T13:10:26.748Z,12.1
2023-03-14T13:14:25.931Z,11.5
2023-03-14T13:16:25.610Z,11.4
2023-03-14T13:18:25.146Z,10.6
2023-03-14T13:20:28.165Z,10.9
2023-03-14T13:22:27.761Z,11.7
2023-03-14T13:24:27.364Z,11.7
2023-03-14T13:28:48.399Z,12
2023-03-14T13:30:48.135Z,12
2023-03-14T13:32:51.176Z,11.7
2023-03-14T13:34:50.645Z,12.2
2023-03-14T13:36:50.290Z,12.4
2023-03-14T13:38:49.846Z,12.8
2023-03-14T13:40:49.498Z,13.2
2023-03-14T13:42:49.098Z,13.1
2023-03-14T13:46:51.706Z,11.5
2023-03-14T13:48:51.313Z,12.1
2023-03-14T13:50:50.901Z,12.7
2023-03-14T13:54:50.091Z,11.6
2023-03-14T13:56:49.750Z,12.7
2023-03-14T13:58:49.325Z,12.8
2023-03-14T14:00:52.345Z,12.6
2023-03-14T14:02:51.967Z,12.9
2023-03-14T14:06:52.531Z,11.8
2023-03-14T14:14:54.742Z,13
2023-03-14T14:18:52.361Z,11.6
2023-03-14T14:19:53.885Z,10.8
2023-03-14T14:21:53.526Z,11.5
2023-03-14T14:23:53.173Z,11.6
2023-03-14T14:25:52.816Z,13
2023-03-14T14:27:55.858Z,13.4
2023-03-14T14:29:55.509Z,13.4
2023-03-14T14:31:55.145Z,13.6
2023-03-14T14:33:54.820Z,14.9
2023-03-14T14:35:54.595Z,14.2
2023-03-14T14:41:56.806Z,13.3
2023-03-14T14:43:56.457Z,13.6
2023-03-14T14:51:55.003Z,9.8
2023-03-14T14:53:54.679Z,9
2023-03-14T14:57:57.398Z,8.2
2023-03-14T14:59:57.096Z,8.2
2023-03-14T15:01:56.821Z,7.9
2023-03-14T15:03:56.454Z,7.5
2023-03-14T15:05:56.124Z,7.2
2023-03-14T15:07:55.795Z,7.3
2023-03-14T15:09:58.941Z,7.1
2023-03-14T15:11:58.583Z,7.1
2023-03-14T15:13:58.303Z,7
2023-03-14T15:14:59.838Z,6.8
2023-03-14T15:16:59.537Z,6.7
2023-03-14T15:18:59.260Z,6.7
2023-03-14T15:20:59.005Z,6.8
2023-03-14T15:23:02.089Z,6.9
2023-03-14T15:25:01.829Z,6.9
2023-03-14T15:29:01.233Z,6.9
2023-03-14T15:33:00.796Z,7
2023-03-14T15:35:00.429Z,6.9
2023-03-14T15:37:03.545Z,7
2023-03-14T15:39:03.277Z,7
2023-03-14T15:41:03.004Z,7.2
2023-03-14T15:43:02.717Z,7.3
2023-03-14T15:47:02.229Z,7.3
2023-03-14T15:49:01.972Z,7.5
2023-03-14T15:51:05.174Z,8.4
2023-03-14T15:53:04.896Z,8.6
2023-03-14T15:55:04.674Z,8.2
2023-03-14T15:57:04.492Z,7.9
2023-03-14T15:59:04.226Z,7.8
2023-03-14T16:01:03.994Z,8
2023-03-14T16:03:03.702Z,8
2023-03-14T16:05:06.963Z,7.4
2023-03-14T16:09:06.510Z,6.8
2023-03-14T16:10:08.069Z,6.6
2023-03-14T16:12:07.842Z,6.6
2023-03-14T16:14:07.676Z,6.6
2023-03-14T16:16:07.487Z,6.5
2023-03-14T16:22:10.098Z,6.7
2023-03-14T16:24:09.865Z,6.6
2023-03-14T16:26:09.681Z,6.4
2023-03-14T16:34:12.266Z,6.2
2023-03-14T16:36:12.351Z,6.2
2023-03-14T16:38:11.718Z,6.2
2023-03-14T16:40:13.287Z,6.2
2023-03-14T16:44:11.235Z,6.2
2023-03-14T16:46:14.551Z,6.1
2023-03-14T16:50:13.991Z,6
2023-03-14T16:52:13.822Z,6
2023-03-14T16:54:13.645Z,5.9
2023-03-14T16:56:13.428Z,5.9
2023-03-14T16:58:13.297Z,5.9
2023-03-14T17:02:16.356Z,5.7
2023-03-14T17:04:16.193Z,5.7
2023-03-14T17:08:31.531Z,5.6
2023-03-14T17:14:34.464Z,5.6
2023-03-14T17:16:34.398Z,5.6
2023-03-14T17:18:34.199Z,5.5
2023-03-14T17:20:34.090Z,5.5
2023-03-14T17:22:33.915Z,5.5
2023-03-14T17:32:36.626Z,5.3
2023-03-14T17:34:36.433Z,5.3
2023-03-14T17:36:36.280Z,5.3
2023-03-14T17:38:36.195Z,5.3
2023-03-14T17:40:39.510Z,5.3
2023-03-14T17:42:39.384Z,5.3
2023-03-14T17:46:39.167Z,5.2
2023-03-14T17:48:38.879Z,5.1
2023-03-14T17:50:38.739Z,5.1
2023-03-14T17:52:38.677Z,5
2023-03-14T17:54:41.775Z,4.9
2023-03-14T17:56:41.628Z,4.9
2023-03-14T17:58:41.433Z,4.8
2023-03-14T18:01:43.017Z,4.7
2023-03-14T18:03:44.316Z,4.6
2023-03-14T18:05:44.100Z,4.5
2023-03-14T18:07:47.396Z,4.5
2023-03-14T18:09:47.149Z,4.5
2023-03-14T18:15:46.869Z,4.3
2023-03-14T18:17:46.650Z,4.2
2023-03-14T18:19:46.516Z,4.2
2023-03-14T18:21:49.884Z,4.3
2023-03-14T18:23:49.758Z,4.4
2023-03-14T18:25:49.613Z,4.4
2023-03-14T18:27:49.505Z,4.5
2023-03-14T18:29:49.343Z,4.5
2023-03-14T18:33:49.089Z,4.5
2023-03-14T18:35:52.490Z,4.5
2023-03-14T18:41:51.830Z,4.4
2023-03-14T18:49:54.603Z,4.3
2023-03-14T18:54:02.837Z,4.2
2023-03-14T18:54:55.924Z,4.2
2023-03-14T18:58:55.575Z,4
2023-03-14T19:00:55.498Z,4
2023-03-14T19:14:57.732Z,3.8
2023-03-14T19:17:01.101Z,3.8
2023-03-14T19:19:00.857Z,3.8
2023-03-14T19:21:00.754Z,3.8
2023-03-14T19:23:00.520Z,3.8
2023-03-14T19:25:00.414Z,3.8
2023-03-14T19:29:00.180Z,3.7
2023-03-14T19:31:03.599Z,3.6
2023-03-14T19:33:03.467Z,3.6
2023-03-14T19:35:03.304Z,3.7
2023-03-14T19:37:03.196Z,3.6
2023-03-14T19:39:03.092Z,3.6
2023-03-14T19:43:02.808Z,3.5
2023-03-14T19:45:06.202Z,3.5
2023-03-14T19:50:07.564Z,3.3
2023-03-14T19:52:07.483Z,3.3
2023-03-14T19:54:07.349Z,3.3
2023-03-14T19:56:08.591Z,3.2
2023-03-14T19:58:10.642Z,3.1
2023-03-14T20:02:10.472Z,2.9
2023-03-14T20:04:10.333Z,2.9
2023-03-14T20:08:10.126Z,2.9
2023-03-14T20:10:09.990Z,2.8
2023-03-14T20:12:13.390Z,2.8
2023-03-14T20:14:13.273Z,2.7
2023-03-14T20:18:13.077Z,2.6
2023-03-14T20:20:12.987Z,2.6
2023-03-14T20:22:12.886Z,2.6
2023-03-14T20:24:12.796Z,2.5
2023-03-14T20:26:16.155Z,2.5
2023-03-14T20:28:16.442Z,2.5
2023-03-14T20:30:16.373Z,2.4
2023-03-14T20:32:16.292Z,2.4
2023-03-14T20:34:16.171Z,2.5
2023-03-14T20:36:16.170Z,2.4
2023-03-14T20:38:15.985Z,2.4
2023-03-14T20:40:19.350Z,2.3
2023-03-14T20:42:19.249Z,2.4
2023-03-14T20:44:19.150Z,2.4
2023-03-14T20:48:34.961Z,2.5
2023-03-14T20:52:38.318Z,2.5
2023-03-14T20:54:38.142Z,2.5
2023-03-14T20:58:37.994Z,2.6
2023-03-14T21:00:37.888Z,2.7
2023-03-14T21:02:37.776Z,2.7
2023-03-14T21:04:37.881Z,2.6
2023-03-14T21:06:41.052Z,2.7
2023-03-14T21:08:40.960Z,2.7
2023-03-14T21:16:40.546Z,2.7
2023-03-14T21:18:40.449Z,2.8
2023-03-14T21:20:43.879Z,2.8
2023-03-14T21:22:43.768Z,2.7
2023-03-14T21:38:46.456Z,2.7
2023-03-14T21:39:48.150Z,2.8
2023-03-14T21:41:48.055Z,2.8
2023-03-14T21:43:47.953Z,2.9
2023-03-14T21:45:47.856Z,3
2023-03-14T21:47:51.276Z,3
2023-03-14T21:49:51.137Z,3
2023-03-14T21:51:51.063Z,3
2023-03-14T21:55:50.887Z,3.1
2023-03-14T21:57:50.776Z,3.2
2023-03-14T21:59:50.669Z,3.2
2023-03-14T22:01:54.194Z,3.2
2023-03-14T22:03:53.946Z,3.1
2023-03-14T22:05:53.853Z,3.1
2023-03-14T22:07:53.745Z,3.1
2023-03-14T22:11:53.548Z,3.1
2023-03-14T22:13:53.456Z,3.1
2023-03-14T22:15:56.914Z,3.2
2023-03-14T22:17:56.728Z,3.2
2023-03-14T22:19:56.632Z,3.2
2023-03-14T22:23:56.467Z,3.3
2023-03-14T22:29:59.593Z,3.3
2023-03-14T22:33:59.361Z,3.2
2023-03-14T22:37:00.986Z,2.9
2023-03-14T22:41:00.731Z,2.2
2023-03-14T22:43:04.131Z,1.9
2023-03-14T22:45:04.044Z,1.8
2023-03-14T22:47:03.889Z,1.7
2023-03-14T22:49:03.795Z,1.5
2023-03-14T22:51:03.702Z,1.4
2023-03-14T22:57:06.855Z,1.2
2023-03-14T22:59:06.776Z,1.2
2023-03-14T23:01:06.698Z,1.2
2023-03-14T23:03:06.667Z,1.2
2023-03-14T23:05:06.469Z,1.2
2023-03-14T23:07:06.387Z,1.2
2023-03-14T23:09:06.313Z,1.2
2023-03-14T23:11:09.699Z,1.2
2023-03-14T23:13:09.604Z,1.2
2023-03-14T23:15:09.498Z,1.1
2023-03-14T23:17:09.459Z,1.1
2023-03-14T23:19:09.309Z,1.1
2023-03-14T23:21:09.239Z,1.2
2023-03-14T23:23:09.130Z,1.1
2023-03-14T23:25:12.530Z,1.1
2023-03-14T23:27:12.416Z,1.1
2023-03-14T23:29:12.344Z,1.1
2023-03-14T23:36:13.774Z,1.1
2023-03-14T23:38:17.147Z,1.1
2023-03-14T23:40:17.143Z,1.2
2023-03-14T23:42:16.980Z,1.2
2023-03-14T23:44:16.885Z,1.2
2023-03-14T23:46:16.899Z,1.2
2023-03-14T23:48:16.743Z,1.2
2023-03-14T23:52:21.583Z,1.2
2023-03-14T23:54:21.494Z,1.2
2023-03-14T23:56:21.381Z,1.1
2023-03-14T23:58:21.270Z,1.2
